sensor_id;sensor_type;location;lat;lon;timestamp;P1;P2;P0
66159;PMS5003;52960;50.810;20.620;2022-08-03T00:00:05;22;21;16
66159;PMS5003;52960;50.810;20.620;2022-08-03T00:07:02;31;27;17
66159;PMS5003;52960;50.810;20.620;2022-08-03T00:14:19;31;27;17
66159;PMS5003;52960;50.810;20.620;2022-08-03T00:21:02;31;27;17
66159;PMS5003;52960;50.810;20.620;2022-08-03T00:28:04;31;27;17
66159;PMS5003;52960;50.810;20.620;2022-08-03T00:42:03;31;28;16
66159;PMS5003;52960;50.810;20.620;2022-08-03T00:49:19;31;28;16
66159;PMS5003;52960;50.810;20.620;2022-08-03T00:56:15;31;28;16
66159;PMS5003;52960;50.810;20.620;2022-08-03T01:00:07;31;28;16
66159;PMS5003;52960;50.810;20.620;2022-08-03T01:08:01;30;22;16
66159;PMS5003;52960;50.810;20.620;2022-08-03T01:14:23;30;22;16
66159;PMS5003;52960;50.810;20.620;2022-08-03T01:21:15;30;22;16
66159;PMS5003;52960;50.810;20.620;2022-08-03T01:35:12;32;29;18
66159;PMS5003;52960;50.810;20.620;2022-08-03T01:42:13;32;29;18
66159;PMS5003;52960;50.810;20.620;2022-08-03T01:49:29;32;29;18
66159;PMS5003;52960;50.810;20.620;2022-08-03T01:56:23;32;29;18
66159;PMS5003;52960;50.810;20.620;2022-08-03T02:00:13;32;29;18
66159;PMS5003;52960;50.810;20.620;2022-08-03T02:07:21;29;26;16
66159;PMS5003;52960;50.810;20.620;2022-08-03T02:14:08;29;26;16
66159;PMS5003;52960;50.810;20.620;2022-08-03T02:21:11;29;26;16
66159;PMS5003;52960;50.810;20.620;2022-08-03T02:28:37;29;26;16
66159;PMS5003;52960;50.810;20.620;2022-08-03T02:35:16;23;21;16
66159;PMS5003;52960;50.810;20.620;2022-08-03T02:42:04;23;21;16
66159;PMS5003;52960;50.810;20.620;2022-08-03T02:49:03;23;21;16
66159;PMS5003;52960;50.810;20.620;2022-08-03T02:56:08;23;21;16
66159;PMS5003;52960;50.810;20.620;2022-08-03T03:00:22;23;21;16
66159;PMS5003;52960;50.810;20.620;2022-08-03T03:07:21;28;22;13
66159;PMS5003;52960;50.810;20.620;2022-08-03T03:14:25;28;22;13
66159;PMS5003;52960;50.810;20.620;2022-08-03T03:21:19;28;22;13
66159;PMS5003;52960;50.810;20.620;2022-08-03T03:28:02;28;22;13
66159;PMS5003;52960;50.810;20.620;2022-08-03T03:35:22;28;26;14
66159;PMS5003;52960;50.810;20.620;2022-08-03T03:42:04;28;26;14
66159;PMS5003;52960;50.810;20.620;2022-08-03T03:49:16;28;26;14
66159;PMS5003;52960;50.810;20.620;2022-08-03T03:56:15;28;26;14
66159;PMS5003;52960;50.810;20.620;2022-08-03T04:00:09;28;26;14
66159;PMS5003;52960;50.810;20.620;2022-08-03T04:14:37;21;18;13
66159;PMS5003;52960;50.810;20.620;2022-08-03T04:21:34;21;18;13
66159;PMS5003;52960;50.810;20.620;2022-08-03T04:28:02;21;18;13
66159;PMS5003;52960;50.810;20.620;2022-08-03T04:35:13;26;23;14
66159;PMS5003;52960;50.810;20.620;2022-08-03T04:42:06;26;23;14
66159;PMS5003;52960;50.810;20.620;2022-08-03T04:49:25;26;23;14
66159;PMS5003;52960;50.810;20.620;2022-08-03T04:56:19;26;23;14
66159;PMS5003;52960;50.810;20.620;2022-08-03T05:00:18;26;23;14
66159;PMS5003;52960;50.810;20.620;2022-08-03T05:07:17;32;26;17
66159;PMS5003;52960;50.810;20.620;2022-08-03T05:14:06;32;26;17
66159;PMS5003;52960;50.810;20.620;2022-08-03T05:21:04;32;26;17
66159;PMS5003;52960;50.810;20.620;2022-08-03T05:28:13;32;26;17
66159;PMS5003;52960;50.810;20.620;2022-08-03T05:35:16;24;21;16
66159;PMS5003;52960;50.810;20.620;2022-08-03T05:42:18;24;21;16
66159;PMS5003;52960;50.810;20.620;2022-08-03T05:49:20;24;21;16
66159;PMS5003;52960;50.810;20.620;2022-08-03T05:56:23;24;21;16
66159;PMS5003;52960;50.810;20.620;2022-08-03T06:00:15;24;21;16
66159;PMS5003;52960;50.810;20.620;2022-08-03T06:07:05;24;20;13
66159;PMS5003;52960;50.810;20.620;2022-08-03T06:14:15;24;20;13
66159;PMS5003;52960;50.810;20.620;2022-08-03T06:21:16;24;20;13
66159;PMS5003;52960;50.810;20.620;2022-08-03T06:28:19;24;20;13
66159;PMS5003;52960;50.810;20.620;2022-08-03T06:35:19;20;16;12
66159;PMS5003;52960;50.810;20.620;2022-08-03T06:42:16;20;16;12
66159;PMS5003;52960;50.810;20.620;2022-08-03T06:49:18;20;16;12
66159;PMS5003;52960;50.810;20.620;2022-08-03T06:56:21;20;16;12
66159;PMS5003;52960;50.810;20.620;2022-08-03T07:00:02;20;16;12
66159;PMS5003;52960;50.810;20.620;2022-08-03T07:07:02;15;14;10
66159;PMS5003;52960;50.810;20.620;2022-08-03T07:14:15;15;14;10
66159;PMS5003;52960;50.810;20.620;2022-08-03T07:21:04;15;14;10
66159;PMS5003;52960;50.810;20.620;2022-08-03T07:28:07;15;14;10
66159;PMS5003;52960;50.810;20.620;2022-08-03T07:42:02;10;10;9
66159;PMS5003;52960;50.810;20.620;2022-08-03T07:49:05;10;10;9
66159;PMS5003;52960;50.810;20.620;2022-08-03T07:56:19;10;10;9
66159;PMS5003;52960;50.810;20.620;2022-08-03T08:00:16;10;10;9
66159;PMS5003;52960;50.810;20.620;2022-08-03T08:14:18;18;14;12
66159;PMS5003;52960;50.810;20.620;2022-08-03T08:21:16;18;14;12
66159;PMS5003;52960;50.810;20.620;2022-08-03T08:28:02;18;14;12
66159;PMS5003;52960;50.810;20.620;2022-08-03T08:35:13;18;14;12
66159;PMS5003;52960;50.810;20.620;2022-08-03T08:42:04;13;13;10
66159;PMS5003;52960;50.810;20.620;2022-08-03T08:49:31;13;13;10
66159;PMS5003;52960;50.810;20.620;2022-08-03T08:56:29;13;13;10
66159;PMS5003;52960;50.810;20.620;2022-08-03T09:00:02;13;13;10
66159;PMS5003;52960;50.810;20.620;2022-08-03T09:14:04;16;16;12
66159;PMS5003;52960;50.810;20.620;2022-08-03T09:21:21;16;16;12
66159;PMS5003;52960;50.810;20.620;2022-08-03T09:28:04;16;16;12
66159;PMS5003;52960;50.810;20.620;2022-08-03T09:35:04;16;16;12
66159;PMS5003;52960;50.810;20.620;2022-08-03T09:42:06;12;11;8
66159;PMS5003;52960;50.810;20.620;2022-08-03T09:49:17;12;11;8
66159;PMS5003;52960;50.810;20.620;2022-08-03T09:56:02;12;11;8
66159;PMS5003;52960;50.810;20.620;2022-08-03T10:00:18;12;11;8
66159;PMS5003;52960;50.810;20.620;2022-08-03T10:14:02;15;13;9
66159;PMS5003;52960;50.810;20.620;2022-08-03T10:21:02;15;13;9
66159;PMS5003;52960;50.810;20.620;2022-08-03T10:28:15;15;13;9
66159;PMS5003;52960;50.810;20.620;2022-08-03T10:35:32;15;13;9
66159;PMS5003;52960;50.810;20.620;2022-08-03T10:42:31;12;10;7
66159;PMS5003;52960;50.810;20.620;2022-08-03T10:49:03;12;10;7
66159;PMS5003;52960;50.810;20.620;2022-08-03T11:00:29;12;10;7
66159;PMS5003;52960;50.810;20.620;2022-08-03T11:14:03;10;10;8
66159;PMS5003;52960;50.810;20.620;2022-08-03T11:21:04;10;10;8
66159;PMS5003;52960;50.810;20.620;2022-08-03T11:28:30;10;10;8
66159;PMS5003;52960;50.810;20.620;2022-08-03T11:35:15;10;10;8
66159;PMS5003;52960;50.810;20.620;2022-08-03T11:42:43;11;10;8
66159;PMS5003;52960;50.810;20.620;2022-08-03T11:49:23;11;10;8
66159;PMS5003;52960;50.810;20.620;2022-08-03T11:56:14;11;10;8
66159;PMS5003;52960;50.810;20.620;2022-08-03T12:00:43;11;10;8
66159;PMS5003;52960;50.810;20.620;2022-08-03T12:07:04;11;10;8
66159;PMS5003;52960;50.810;20.620;2022-08-03T12:14:16;16;16;9
66159;PMS5003;52960;50.810;20.620;2022-08-03T12:21:24;16;16;9
66159;PMS5003;52960;50.810;20.620;2022-08-03T12:28:46;16;16;9
66159;PMS5003;52960;50.810;20.620;2022-08-03T12:35:23;16;16;9
66159;PMS5003;52960;50.810;20.620;2022-08-03T12:42:09;12;12;8
66159;PMS5003;52960;50.810;20.620;2022-08-03T12:49:18;12;12;8
66159;PMS5003;52960;50.810;20.620;2022-08-03T12:56:15;12;12;8
66159;PMS5003;52960;50.810;20.620;2022-08-03T13:00:20;12;12;8
66159;PMS5003;52960;50.810;20.620;2022-08-03T13:07:12;12;12;8
66159;PMS5003;52960;50.810;20.620;2022-08-03T13:14:06;14;12;9
66159;PMS5003;52960;50.810;20.620;2022-08-03T13:21:21;14;12;9
66159;PMS5003;52960;50.810;20.620;2022-08-03T13:28:15;14;12;9
66159;PMS5003;52960;50.810;20.620;2022-08-03T13:35:04;14;12;9
66159;PMS5003;52960;50.810;20.620;2022-08-03T13:42:06;13;12;8
66159;PMS5003;52960;50.810;20.620;2022-08-03T13:49:04;13;12;8
66159;PMS5003;52960;50.810;20.620;2022-08-03T13:56:05;13;12;8
66159;PMS5003;52960;50.810;20.620;2022-08-03T14:07:02;13;12;8
66159;PMS5003;52960;50.810;20.620;2022-08-03T14:14:04;14;11;8
66159;PMS5003;52960;50.810;20.620;2022-08-03T14:21:02;14;11;8
66159;PMS5003;52960;50.810;20.620;2022-08-03T14:28:20;14;11;8
66159;PMS5003;52960;50.810;20.620;2022-08-03T14:35:18;14;11;8
66159;PMS5003;52960;50.810;20.620;2022-08-03T14:42:03;11;11;8
66159;PMS5003;52960;50.810;20.620;2022-08-03T14:49:18;11;11;8
66159;PMS5003;52960;50.810;20.620;2022-08-03T14:56:18;11;11;8
66159;PMS5003;52960;50.810;20.620;2022-08-03T15:00:09;11;11;8
66159;PMS5003;52960;50.810;20.620;2022-08-03T15:07:07;11;11;8
66159;PMS5003;52960;50.810;20.620;2022-08-03T15:14:16;13;12;9
66159;PMS5003;52960;50.810;20.620;2022-08-03T15:21:16;13;12;9
66159;PMS5003;52960;50.810;20.620;2022-08-03T15:28:16;13;12;9
66159;PMS5003;52960;50.810;20.620;2022-08-03T15:35:05;13;12;9
66159;PMS5003;52960;50.810;20.620;2022-08-03T15:49:22;14;13;9
66159;PMS5003;52960;50.810;20.620;2022-08-03T15:56:02;14;13;9
66159;PMS5003;52960;50.810;20.620;2022-08-03T16:00:22;14;13;9
66159;PMS5003;52960;50.810;20.620;2022-08-03T16:07:04;14;13;9
66159;PMS5003;52960;50.810;20.620;2022-08-03T16:21:06;14;12;9
66159;PMS5003;52960;50.810;20.620;2022-08-03T16:28:05;14;12;9
66159;PMS5003;52960;50.810;20.620;2022-08-03T16:35:07;14;12;9
66159;PMS5003;52960;50.810;20.620;2022-08-03T16:49:19;13;12;9
66159;PMS5003;52960;50.810;20.620;2022-08-03T16:56:05;13;12;9
66159;PMS5003;52960;50.810;20.620;2022-08-03T17:00:26;13;12;9
66159;PMS5003;52960;50.810;20.620;2022-08-03T17:07:02;13;12;9
66159;PMS5003;52960;50.810;20.620;2022-08-03T17:21:44;12;12;9
66159;PMS5003;52960;50.810;20.620;2022-08-03T17:28:39;12;12;9
66159;PMS5003;52960;50.810;20.620;2022-08-03T17:35:17;12;12;9
66159;PMS5003;52960;50.810;20.620;2022-08-03T17:49:20;16;15;10
66159;PMS5003;52960;50.810;20.620;2022-08-03T17:56:16;16;15;10
66159;PMS5003;52960;50.810;20.620;2022-08-03T18:07:40;16;15;10
66159;PMS5003;52960;50.810;20.620;2022-08-03T18:21:12;23;17;11
66159;PMS5003;52960;50.810;20.620;2022-08-03T18:28:15;23;17;11
66159;PMS5003;52960;50.810;20.620;2022-08-03T18:35:21;23;17;11
66159;PMS5003;52960;50.810;20.620;2022-08-03T18:56:20;13;13;10
66159;PMS5003;52960;50.810;20.620;2022-08-03T19:00:18;13;13;10
66159;PMS5003;52960;50.810;20.620;2022-08-03T19:07:14;13;13;10
66159;PMS5003;52960;50.810;20.620;2022-08-03T19:21:07;25;20;14
66159;PMS5003;52960;50.810;20.620;2022-08-03T19:28:26;25;20;14
66159;PMS5003;52960;50.810;20.620;2022-08-03T19:35:02;25;20;14
66159;PMS5003;52960;50.810;20.620;2022-08-03T19:42:14;25;20;14
66159;PMS5003;52960;50.810;20.620;2022-08-03T19:49:39;22;21;13
66159;PMS5003;52960;50.810;20.620;2022-08-03T19:56:11;22;21;13
66159;PMS5003;52960;50.810;20.620;2022-08-03T20:00:14;22;21;13
66159;PMS5003;52960;50.810;20.620;2022-08-03T20:07:18;22;21;13
66159;PMS5003;52960;50.810;20.620;2022-08-03T20:21:02;18;18;15
66159;PMS5003;52960;50.810;20.620;2022-08-03T20:28:45;18;18;15
66159;PMS5003;52960;50.810;20.620;2022-08-03T20:35:03;18;18;15
66159;PMS5003;52960;50.810;20.620;2022-08-03T20:42:04;18;18;15
66159;PMS5003;52960;50.810;20.620;2022-08-03T20:49:22;21;16;10
66159;PMS5003;52960;50.810;20.620;2022-08-03T20:56:20;21;16;10
66159;PMS5003;52960;50.810;20.620;2022-08-03T21:00:24;21;16;10
66159;PMS5003;52960;50.810;20.620;2022-08-03T21:07:37;21;16;10
66159;PMS5003;52960;50.810;20.620;2022-08-03T21:21:38;20;18;11
66159;PMS5003;52960;50.810;20.620;2022-08-03T21:28:06;20;18;11
66159;PMS5003;52960;50.810;20.620;2022-08-03T21:35:08;20;18;11
66159;PMS5003;52960;50.810;20.620;2022-08-03T21:42:15;20;18;11
66159;PMS5003;52960;50.810;20.620;2022-08-03T21:49:31;19;17;12
66159;PMS5003;52960;50.810;20.620;2022-08-03T21:56:42;19;17;12
66159;PMS5003;52960;50.810;20.620;2022-08-03T22:00:26;19;17;12
66159;PMS5003;52960;50.810;20.620;2022-08-03T22:07:04;19;17;12
66159;PMS5003;52960;50.810;20.620;2022-08-03T22:14:17;21;19;13
66159;PMS5003;52960;50.810;20.620;2022-08-03T22:21:20;21;19;13
66159;PMS5003;52960;50.810;20.620;2022-08-03T22:28:10;21;19;13
66159;PMS5003;52960;50.810;20.620;2022-08-03T22:35:12;20;17;12
66159;PMS5003;52960;50.810;20.620;2022-08-03T22:42:15;20;17;12
66159;PMS5003;52960;50.810;20.620;2022-08-03T22:49:02;20;17;12
66159;PMS5003;52960;50.810;20.620;2022-08-03T22:56:14;20;17;12
66159;PMS5003;52960;50.810;20.620;2022-08-03T23:00:17;20;17;12
66159;PMS5003;52960;50.810;20.620;2022-08-03T23:07:20;16;16;10
66159;PMS5003;52960;50.810;20.620;2022-08-03T23:14:15;16;16;10
66159;PMS5003;52960;50.810;20.620;2022-08-03T23:21:21;16;16;10
66159;PMS5003;52960;50.810;20.620;2022-08-03T23:28:31;16;16;10
66159;PMS5003;52960;50.810;20.620;2022-08-03T23:42:25;19;15;10
66159;PMS5003;52960;50.810;20.620;2022-08-03T23:49:19;19;15;10
